Time;durP1;ratioP1;P1;durP2;ratioP2;P2;SDS_P1;SDS_P2;PMS_P1;PMS_P2;Temp;Humidity;BMP_temperature;BMP_pressure;BME280_temperature;BME280_humidity;BME280_pressure;Samples;Min_cycle;Max_cycle;Signal;HPM_P1;HPM_P2
2022/03/04 00:02:15;;;;;;;21.98;11.07;;;0.10;99.90;;;;;;6103135;23;20017;-85
2022/03/04 00:04:41;;;;;;;27.23;10.98;;;0.10;99.90;;;;;;6102980;23;20021;-86
2022/03/04 00:07:07;;;;;;;22.83;11.10;;;0.10;99.90;;;;;;6127498;23;20072;-87
2022/03/04 00:09:34;;;;;;;23.13;10.90;;;0.00;99.90;;;;;;6102974;23;20014;-86
2022/03/04 00:12:02;;;;;;;26.58;12.20;;;0.20;99.90;;;;;;6103180;23;20056;-87
2022/03/04 00:14:28;;;;;;;23.00;11.13;;;0.00;99.90;;;;;;6128530;23;20051;-87
2022/03/04 00:16:54;;;;;;;24.92;11.25;;;0.00;99.90;;;;;;6128901;23;20024;-88
2022/03/04 00:19:20;;;;;;;23.73;12.07;;;-0.10;99.90;;;;;;6129354;23;20456;-91
2022/03/04 00:21:48;;;;;;;26.13;11.45;;;-0.10;99.90;;;;;;6104904;23;20113;-86
2022/03/04 00:24:18;;;;;;;23.35;11.50;;;0.10;99.90;;;;;;6129286;23;20024;-88
2022/03/04 00:26:45;;;;;;;23.77;11.77;;;-0.20;99.90;;;;;;6104471;23;20021;-87
2022/03/04 00:29:11;;;;;;;26.63;11.73;;;-0.20;99.90;;;;;;6080878;23;20105;-88
2022/03/04 00:31:38;;;;;;;26.02;11.02;;;-0.30;99.90;;;;;;6104445;23;20028;-88
2022/03/04 00:34:07;;;;;;;23.63;11.18;;;-0.30;99.90;;;;;;6129119;23;20460;-86
2022/03/04 00:36:35;;;;;;;26.75;12.45;;;-0.40;99.90;;;;;;6128643;23;20025;-88
2022/03/04 00:39:04;;;;;;;24.08;10.85;;;-0.40;99.90;;;;;;6153950;23;20028;-87
2022/03/04 00:41:30;;;;;;;22.67;11.40;;;-0.50;99.90;;;;;;6129276;23;20125;-86
2022/03/04 00:43:56;;;;;;;23.23;11.80;;;-0.50;99.90;;;;;;6129624;23;20013;-86
2022/03/04 00:46:22;;;;;;;27.33;11.65;;;-0.60;99.90;;;;;;6103918;23;20040;-90
2022/03/04 00:48:48;;;;;;;27.42;11.68;;;-0.70;99.90;;;;;;6104438;23;20477;-86
2022/03/04 00:51:15;;;;;;;24.48;10.90;;;-0.70;99.90;;;;;;6129170;23;20472;-87
2022/03/04 00:53:41;;;;;;;27.67;13.05;;;-0.80;99.90;;;;;;6128952;23;20025;-87
2022/03/04 00:56:08;;;;;;;26.85;12.50;;;-0.90;99.90;;;;;;6153916;23;20345;-87
2022/03/04 00:58:35;;;;;;;28.23;11.82;;;-0.90;99.90;;;;;;6128347;23;20021;-86
2022/03/04 01:01:01;;;;;;;28.10;12.63;;;-0.90;99.90;;;;;;6104809;23;20021;-86
2022/03/04 01:03:27;;;;;;;29.17;13.52;;;-1.00;99.90;;;;;;6104394;23;20076;-87
2022/03/04 01:05:53;;;;;;;27.25;12.35;;;-1.00;99.90;;;;;;6104608;23;20322;-86
2022/03/04 01:08:19;;;;;;;28.17;13.00;;;-1.10;99.90;;;;;;6129094;23;20021;-88
2022/03/04 01:10:45;;;;;;;27.02;12.10;;;-1.20;99.90;;;;;;6128737;23;20029;-86
2022/03/04 01:13:11;;;;;;;27.27;13.60;;;-1.20;99.90;;;;;;6129027;23;20017;-86
2022/03/04 01:15:37;;;;;;;25.75;11.80;;;-1.20;99.90;;;;;;6153078;23;20329;-86
2022/03/04 01:18:03;;;;;;;25.88;11.65;;;-1.10;99.90;;;;;;6080857;23;20096;-86
2022/03/04 01:20:30;;;;;;;32.47;14.07;;;-1.10;99.90;;;;;;6103623;23;20020;-86
2022/03/04 01:22:59;;;;;;;27.17;13.43;;;-1.10;99.90;;;;;;6129535;23;20045;-85
2022/03/04 01:25:26;;;;;;;28.83;13.43;;;-1.10;99.90;;;;;;6104768;23;20341;-85
2022/03/04 01:27:52;;;;;;;29.80;12.73;;;-1.10;99.90;;;;;;6153612;23;20052;-85
2022/03/04 01:30:18;;;;;;;32.60;12.90;;;-1.20;99.90;;;;;;6128475;23;20330;-86
2022/03/04 01:32:45;;;;;;;34.90;14.60;;;-1.10;99.90;;;;;;6152414;23;20017;-86
2022/03/04 01:35:11;;;;;;;32.83;14.30;;;-1.10;99.90;;;;;;6104747;23;20348;-86
2022/03/04 01:37:37;;;;;;;31.50;13.77;;;-1.20;99.90;;;;;;6152806;23;20018;-86
2022/03/04 01:40:04;;;;;;;29.50;13.00;;;-1.20;99.90;;;;;;6129026;23;20075;-85
2022/03/04 01:42:30;;;;;;;33.55;13.10;;;-1.30;99.90;;;;;;6152729;23;20023;-88
2022/03/04 01:44:56;;;;;;;29.85;14.63;;;-1.30;99.90;;;;;;6080172;23;20060;-86
2022/03/04 01:47:22;;;;;;;31.90;13.55;;;-1.30;99.90;;;;;;6128295;23;20452;-86
2022/03/04 01:49:47;;;;;;;32.00;14.27;;;-1.30;99.90;;;;;;6103301;23;20013;-85
2022/03/04 01:52:14;;;;;;;32.50;14.82;;;-1.30;99.90;;;;;;6103556;23;20512;-85
2022/03/04 01:54:40;;;;;;;29.48;12.98;;;-1.20;99.90;;;;;;6103478;23;20024;-87
2022/03/04 01:57:05;;;;;;;32.55;14.38;;;-1.20;99.90;;;;;;6102935;23;20100;-86
2022/03/04 01:59:31;;;;;;;34.17;14.63;;;-1.20;99.90;;;;;;6152138;23;20381;-89
2022/03/04 02:01:57;;;;;;;32.92;14.07;;;-1.20;99.90;;;;;;6152396;23;20024;-86
2022/03/04 02:04:25;;;;;;;31.33;14.75;;;-1.30;99.90;;;;;;6104220;23;20017;-86
2022/03/04 02:06:51;;;;;;;30.92;13.50;;;-1.30;99.90;;;;;;6128195;23;20057;-86
2022/03/04 02:09:17;;;;;;;35.15;13.98;;;-1.30;99.90;;;;;;6128484;23;20018;-86
2022/03/04 02:11:44;;;;;;;36.17;14.63;;;-1.30;99.90;;;;;;6128305;23;20013;-86
2022/03/04 02:14:13;;;;;;;30.70;13.70;;;-1.40;99.90;;;;;;6128307;23;20021;-88
2022/03/04 02:16:51;;;;;;;34.00;13.68;;;-1.30;99.90;;;;;;6103197;23;20032;-86
2022/03/04 02:19:17;;;;;;;32.40;14.40;;;-1.40;99.90;;;;;;6128550;23;20465;-85
2022/03/04 02:22:03;;;;;;;35.97;14.07;;;-1.40;99.90;;;;;;6127759;23;20048;-85
2022/03/04 02:24:31;;;;;;;37.03;14.88;;;-1.30;99.90;;;;;;6152867;23;20014;-85
2022/03/04 02:26:59;;;;;;;30.75;13.65;;;-1.40;99.90;;;;;;6127273;23;20024;-85
2022/03/04 02:29:26;;;;;;;32.47;14.30;;;-1.40;99.90;;;;;;6128006;23;20048;-85
2022/03/04 02:31:52;;;;;;;35.65;14.88;;;-1.40;99.90;;;;;;6127547;23;20094;-85
2022/03/04 02:34:18;;;;;;;33.90;14.25;;;-1.40;99.90;;;;;;6151734;23;20021;-85
2022/03/04 02:36:44;;;;;;;37.00;15.23;;;-1.50;99.90;;;;;;6126976;23;20017;-85
2022/03/04 02:39:11;;;;;;;34.67;14.15;;;-1.50;99.90;;;;;;6152239;23;20523;-86
2022/03/04 02:41:37;;;;;;;34.75;13.98;;;-1.40;99.90;;;;;;6126953;23;20013;-90
2022/03/04 02:44:05;;;;;;;39.05;16.27;;;-1.40;99.90;;;;;;6127549;23;20116;-86
2022/03/04 02:46:31;;;;;;;38.80;15.85;;;-1.40;99.90;;;;;;6104026;23;20013;-85
2022/03/04 02:48:56;;;;;;;36.78;14.60;;;-1.40;99.90;;;;;;6126875;23;20024;-85
2022/03/04 02:51:22;;;;;;;35.95;15.55;;;-1.30;99.90;;;;;;6128182;23;20013;-85
2022/03/04 02:53:48;;;;;;;34.58;15.85;;;-1.50;99.90;;;;;;6079447;23;20021;-85
2022/03/04 02:56:14;;;;;;;35.50;15.20;;;-1.50;99.90;;;;;;6079847;23;20025;-85
2022/03/04 02:58:39;;;;;;;36.58;15.52;;;-1.50;99.90;;;;;;6079442;23;20053;-88
2022/03/04 03:01:06;;;;;;;33.35;14.82;;;-1.40;99.90;;;;;;6079874;23;20353;-89
2022/03/04 03:03:31;;;;;;;57.08;25.50;;;-1.50;99.90;;;;;;6128008;23;20028;-85
2022/03/04 03:05:57;;;;;;;43.60;18.35;;;-1.50;99.90;;;;;;6127416;23;20018;-84
2022/03/04 03:08:23;;;;;;;41.90;17.27;;;-1.60;99.90;;;;;;6127841;23;20088;-85
2022/03/04 03:10:49;;;;;;;38.10;16.45;;;-1.60;99.90;;;;;;6127262;23;20022;-85
2022/03/04 03:13:15;;;;;;;42.38;16.80;;;-1.60;99.90;;;;;;6128029;23;20018;-86
2022/03/04 03:15:41;;;;;;;37.63;15.85;;;-1.50;99.90;;;;;;6103285;23;20072;-91
2022/03/04 03:18:06;;;;;;;40.47;16.15;;;-1.60;99.90;;;;;;6127506;23;20033;-85
2022/03/04 03:20:33;;;;;;;37.95;15.27;;;-1.60;99.90;;;;;;6127917;23;20056;-86
2022/03/04 03:22:59;;;;;;;39.47;16.10;;;-1.60;99.90;;;;;;6103456;23;20076;-86
2022/03/04 03:25:25;;;;;;;41.97;16.40;;;-1.50;99.90;;;;;;6151906;23;20101;-85
2022/03/04 03:27:50;;;;;;;40.95;17.17;;;-1.60;99.90;;;;;;6102095;23;20014;-86
2022/03/04 03:30:16;;;;;;;41.13;16.50;;;-1.60;99.90;;;;;;6103201;23;20014;-86
2022/03/04 03:32:42;;;;;;;39.00;16.33;;;-1.50;99.90;;;;;;6103135;23;20100;-90
2022/03/04 03:35:08;;;;;;;39.65;16.38;;;-1.40;99.90;;;;;;6103831;23;20018;-85
2022/03/04 03:37:36;;;;;;;41.78;16.10;;;-1.40;99.90;;;;;;6127993;23;20043;-85
2022/03/04 03:40:04;;;;;;;41.38;16.38;;;-1.40;99.90;;;;;;6127309;23;20021;-85
2022/03/04 03:42:30;;;;;;;41.00;17.67;;;-1.40;99.90;;;;;;6127837;23;20385;-86
2022/03/04 03:44:56;;;;;;;41.13;18.38;;;-1.40;99.90;;;;;;6151889;23;20028;-85
2022/03/04 03:47:21;;;;;;;43.30;18.08;;;-1.40;99.90;;;;;;6103985;23;20484;-86
2022/03/04 03:49:47;;;;;;;48.97;18.13;;;-1.40;99.90;;;;;;6104427;23;20022;-86
2022/03/04 03:52:13;;;;;;;43.53;18.17;;;-1.30;99.90;;;;;;6081783;23;20101;-86
2022/03/04 03:54:39;;;;;;;41.92;17.63;;;-1.30;99.90;;;;;;6129950;23;20018;-85
2022/03/04 03:57:05;;;;;;;46.15;17.60;;;-1.20;99.90;;;;;;6129190;23;20464;-86
2022/03/04 03:59:31;;;;;;;46.22;18.73;;;-1.20;99.90;;;;;;6129773;23;20113;-85
2022/03/04 04:01:58;;;;;;;42.45;17.00;;;-1.30;99.90;;;;;;6104299;23;20104;-86
2022/03/04 04:04:24;;;;;;;49.13;18.52;;;-1.30;99.90;;;;;;6152992;23;20068;-86
2022/03/04 04:06:51;;;;;;;45.00;17.83;;;-1.20;99.90;;;;;;6128231;23;20068;-87
2022/03/04 04:09:16;;;;;;;43.20;17.80;;;-1.20;99.90;;;;;;6129313;23;20323;-86
2022/03/04 04:11:43;;;;;;;45.60;18.00;;;-1.20;99.90;;;;;;6129530;23;20089;-85
2022/03/04 04:14:09;;;;;;;42.17;18.35;;;-1.10;99.90;;;;;;6129013;23;20480;-85
2022/03/04 04:16:36;;;;;;;47.75;19.73;;;-1.10;99.90;;;;;;6128799;23;20032;-85
2022/03/04 04:19:03;;;;;;;42.13;17.85;;;-1.00;99.90;;;;;;6129187;23;20024;-85
2022/03/04 04:21:29;;;;;;;45.50;18.55;;;-1.00;99.90;;;;;;6105059;23;20072;-85
2022/03/04 04:23:55;;;;;;;42.25;17.58;;;-1.00;99.90;;;;;;6128746;23;20077;-86
2022/03/04 04:26:22;;;;;;;50.67;19.98;;;-0.90;99.90;;;;;;6153385;23;20021;-87
2022/03/04 04:28:48;;;;;;;48.88;19.95;;;-0.90;99.90;;;;;;6104782;23;20101;-88
2022/03/04 04:31:14;;;;;;;46.15;18.45;;;-0.90;99.90;;;;;;6129035;23;20057;-86
2022/03/04 04:33:40;;;;;;;47.08;19.05;;;-0.90;99.90;;;;;;6105197;23;20022;-87
2022/03/04 04:36:06;;;;;;;45.17;18.75;;;-0.90;99.90;;;;;;6104449;23;20052;-86
2022/03/04 04:38:32;;;;;;;46.47;18.85;;;-0.90;99.90;;;;;;6104407;23;20086;-86
2022/03/04 04:40:57;;;;;;;43.70;17.75;;;-0.90;99.90;;;;;;6128535;23;20484;-85
2022/03/04 04:43:23;;;;;;;47.25;20.73;;;-0.80;99.90;;;;;;6129227;23;20021;-85
2022/03/04 04:45:51;;;;;;;46.67;19.02;;;-0.80;99.90;;;;;;6081114;23;20103;-84
2022/03/04 04:48:17;;;;;;;47.85;19.70;;;-0.80;99.90;;;;;;6153705;23;20052;-84
2022/03/04 04:50:43;;;;;;;50.05;19.80;;;-0.90;99.90;;;;;;6128867;23;20437;-84
2022/03/04 04:53:09;;;;;;;48.83;20.08;;;-0.80;99.90;;;;;;6104487;23;20129;-84
2022/03/04 04:55:34;;;;;;;53.58;20.55;;;-0.80;99.90;;;;;;6104943;23;20021;-84
2022/03/04 04:58:00;;;;;;;51.38;19.92;;;-0.70;99.90;;;;;;6103541;23;20029;-86
2022/03/04 05:00:27;;;;;;;51.95;21.17;;;-0.70;99.90;;;;;;6128412;23;20018;-86
2022/03/04 05:02:52;;;;;;;52.35;19.98;;;-0.70;99.90;;;;;;6128387;23;20024;-90
2022/03/04 05:05:19;;;;;;;49.42;19.77;;;-0.70;99.90;;;;;;6103835;23;20458;-86
2022/03/04 05:07:46;;;;;;;58.33;21.25;;;-0.60;99.90;;;;;;6104648;23;20022;-85
2022/03/04 05:10:12;;;;;;;49.85;20.40;;;-0.60;99.90;;;;;;6104098;23;20398;-86
2022/03/04 05:12:38;;;;;;;50.80;19.30;;;-0.60;99.90;;;;;;6128618;23;20441;-85
2022/03/04 05:15:04;;;;;;;49.45;20.52;;;-0.60;99.90;;;;;;6128288;23;20034;-85
2022/03/04 05:17:30;;;;;;;45.42;19.77;;;-0.60;99.90;;;;;;6153962;23;20017;-85
2022/03/04 05:19:56;;;;;;;52.53;20.65;;;-0.50;99.90;;;;;;6103765;23;20480;-87
2022/03/04 05:22:22;;;;;;;50.33;20.38;;;-0.50;99.90;;;;;;6128282;23;20021;-85
2022/03/04 05:24:47;;;;;;;50.55;19.45;;;-0.40;99.90;;;;;;6127783;23;20074;-85
2022/03/04 05:27:13;;;;;;;45.17;19.05;;;-0.40;99.90;;;;;;6103242;23;20464;-86
2022/03/04 05:29:39;;;;;;;44.85;19.27;;;-0.40;99.90;;;;;;6104215;23;20013;-85
2022/03/04 05:32:04;;;;;;;45.20;18.80;;;-0.40;99.90;;;;;;6127947;23;20516;-85
2022/03/04 05:34:30;;;;;;;47.95;18.92;;;-0.40;99.90;;;;;;6128613;23;20084;-87
2022/03/04 05:36:56;;;;;;;48.42;20.00;;;-0.40;99.90;;;;;;6104034;23;20104;-90
2022/03/04 05:39:22;;;;;;;46.35;19.13;;;-0.40;99.90;;;;;;6128457;23;20120;-85
2022/03/04 05:41:47;;;;;;;46.13;19.65;;;-0.40;99.90;;;;;;6103706;23;20024;-85
2022/03/04 05:44:14;;;;;;;47.83;20.13;;;-0.50;99.90;;;;;;6128354;23;20096;-87
2022/03/04 05:46:40;;;;;;;45.03;18.77;;;-0.50;99.90;;;;;;6152865;23;20700;-86
2022/03/04 05:49:05;;;;;;;46.50;20.50;;;-0.40;99.90;;;;;;6127942;23;20056;-85
2022/03/04 05:51:33;;;;;;;46.10;19.15;;;-0.40;99.90;;;;;;6104480;23;20124;-84
2022/03/04 05:53:59;;;;;;;48.70;21.65;;;-0.40;99.90;;;;;;6128213;23;20108;-91
2022/03/04 05:56:25;;;;;;;47.85;20.67;;;-0.40;99.90;;;;;;6104045;23;20052;-85
2022/03/04 05:58:51;;;;;;;47.03;19.70;;;-0.40;99.90;;;;;;6128106;23;20025;-87
2022/03/04 06:01:17;;;;;;;47.28;18.90;;;-0.40;99.90;;;;;;6103437;23;20458;-86
2022/03/04 06:03:43;;;;;;;47.90;19.58;;;-0.40;99.90;;;;;;6127858;23;20076;-85
2022/03/04 06:06:13;;;;;;;50.05;20.23;;;-0.40;99.90;;;;;;6127642;23;20404;-86
2022/03/04 06:08:39;;;;;;;45.83;18.45;;;-0.40;99.90;;;;;;6127401;23;20517;-87
2022/03/04 06:11:09;;;;;;;52.92;21.58;;;-0.40;99.90;;;;;;6150985;23;20326;-88
2022/03/04 06:13:36;;;;;;;45.30;19.38;;;-0.40;99.90;;;;;;6127009;23;20025;-87
2022/03/04 06:16:03;;;;;;;43.97;19.42;;;-0.40;99.90;;;;;;6126847;23;20021;-90
2022/03/04 06:18:29;;;;;;;49.85;20.85;;;-0.40;99.90;;;;;;6152093;23;20029;-86
2022/03/04 06:20:54;;;;;;;51.30;21.52;;;-0.40;99.90;;;;;;6126966;23;20474;-85
2022/03/04 06:23:21;;;;;;;46.00;19.55;;;-0.40;99.90;;;;;;6127548;23;20022;-85
2022/03/04 06:25:47;;;;;;;51.53;21.67;;;-0.40;99.90;;;;;;6152814;23;20377;-86
2022/03/04 06:28:13;;;;;;;47.38;20.15;;;-0.40;99.90;;;;;;6079827;23;20021;-87
2022/03/04 06:30:38;;;;;;;48.40;20.77;;;-0.30;99.90;;;;;;6128010;23;20013;-89
2022/03/04 06:35:53;;;;;;;46.63;20.80;;;-0.30;99.90;;;;;;6131641;23;20072;-88
2022/03/04 06:38:19;;;;;;;50.70;21.73;;;-0.20;99.90;;;;;;6151578;23;20245;-88
2022/03/04 06:40:46;;;;;;;48.35;20.95;;;-0.20;99.90;;;;;;6127871;23;20025;-89
2022/03/04 06:43:12;;;;;;;47.03;20.05;;;-0.20;99.90;;;;;;6078977;23;20049;-89
2022/03/04 06:45:45;;;;;;;51.88;21.63;;;-0.20;99.90;;;;;;6128205;23;20024;-88
2022/03/04 06:48:12;;;;;;;48.97;19.95;;;0.00;99.90;;;;;;6152635;23;20017;-88
2022/03/04 06:50:38;;;;;;;45.60;20.15;;;-0.20;99.90;;;;;;6127407;23;20353;-89
2022/03/04 06:53:05;;;;;;;45.45;19.13;;;-0.20;99.90;;;;;;6129368;23;20029;-91
2022/03/04 06:55:32;;;;;;;45.50;18.60;;;-0.10;99.90;;;;;;6127253;23;20524;-88
2022/03/04 06:57:57;;;;;;;45.70;19.02;;;-0.10;99.90;;;;;;6101167;23;20018;-87
2022/03/04 07:00:29;;;;;;;40.65;19.35;;;0.00;99.90;;;;;;6077220;23;20445;-86
2022/03/04 07:02:55;;;;;;;46.50;20.52;;;0.00;99.90;;;;;;6126477;23;20345;-91
2022/03/04 07:05:22;;;;;;;42.33;20.02;;;-0.10;99.90;;;;;;6126652;23;20032;-85
2022/03/04 07:07:52;;;;;;;46.85;19.63;;;-0.10;99.90;;;;;;6126482;23;20029;-86
2022/03/04 07:10:19;;;;;;;52.67;19.73;;;0.00;99.90;;;;;;6101416;23;20738;-86
2022/03/04 07:12:45;;;;;;;42.60;20.05;;;0.00;99.90;;;;;;6126840;23;20018;-88
2022/03/04 07:15:14;;;;;;;44.17;19.35;;;0.00;99.90;;;;;;6125736;23;20025;-87
2022/03/04 07:17:40;;;;;;;44.00;19.17;;;0.00;99.90;;;;;;6152138;23;20033;-87
2022/03/04 07:20:07;;;;;;;46.80;19.00;;;0.10;99.90;;;;;;6151948;23;20017;-87
2022/03/04 07:22:35;;;;;;;42.72;18.48;;;0.10;99.90;;;;;;6152601;23;20024;-86
2022/03/04 07:25:03;;;;;;;50.78;22.00;;;0.20;99.90;;;;;;6152732;23;20080;-86
2022/03/04 07:27:29;;;;;;;42.45;19.42;;;0.10;99.90;;;;;;6126797;23;20022;-85
2022/03/04 07:29:55;;;;;;;43.85;19.98;;;0.20;99.90;;;;;;6104224;23;20111;-86
2022/03/04 07:32:22;;;;;;;45.33;20.30;;;0.30;99.90;;;;;;6104191;23;20028;-86
2022/03/04 07:34:48;;;;;;;44.83;20.27;;;0.30;99.90;;;;;;6153457;23;20017;-86
2022/03/04 07:37:13;;;;;;;43.47;19.23;;;0.30;99.90;;;;;;6128472;23;20076;-86
2022/03/04 07:39:39;;;;;;;46.40;19.58;;;0.40;99.90;;;;;;6104894;23;20092;-86
2022/03/04 07:42:05;;;;;;;48.00;20.33;;;0.40;99.90;;;;;;6128846;23;20445;-86
2022/03/04 07:44:31;;;;;;;43.10;19.00;;;0.50;99.90;;;;;;6104725;23;20034;-87
2022/03/04 07:46:56;;;;;;;43.92;20.35;;;0.50;99.90;;;;;;6080790;23;20028;-86
2022/03/04 07:49:22;;;;;;;40.55;18.83;;;0.70;99.90;;;;;;6104078;23;20014;-86
2022/03/04 07:51:48;;;;;;;43.70;20.15;;;0.60;99.90;;;;;;6104766;23;20025;-86
2022/03/04 07:54:14;;;;;;;45.13;19.38;;;0.70;99.90;;;;;;6080419;23;20025;-87
2022/03/04 07:56:40;;;;;;;42.80;18.45;;;0.80;99.90;;;;;;6104854;23;20021;-87
2022/03/04 07:59:05;;;;;;;44.58;21.00;;;0.90;99.90;;;;;;6104835;23;20040;-86
2022/03/04 08:01:31;;;;;;;42.80;20.65;;;1.00;99.90;;;;;;6103126;23;20155;-88
2022/03/04 08:03:57;;;;;;;41.63;19.70;;;1.10;99.90;;;;;;6128042;23;20024;-87
2022/03/04 08:06:22;;;;;;;43.63;20.38;;;1.20;99.90;;;;;;6079672;23;20017;-86
2022/03/04 08:08:48;;;;;;;39.72;19.88;;;1.20;99.90;;;;;;6127102;23;20018;-84
2022/03/04 08:11:14;;;;;;;41.85;19.45;;;1.20;99.90;;;;;;6126980;23;20021;-86
2022/03/04 08:13:40;;;;;;;44.45;20.20;;;1.30;99.90;;;;;;6127100;23;20044;-85
2022/03/04 08:16:06;;;;;;;43.40;20.35;;;1.30;99.90;;;;;;6127430;23;20029;-84
2022/03/04 08:18:34;;;;;;;42.65;19.88;;;1.30;99.90;;;;;;6080507;23;20101;-84
2022/03/04 08:21:00;;;;;;;38.72;18.75;;;1.40;99.90;;;;;;6103079;23;20441;-84
2022/03/04 08:23:26;;;;;;;37.95;18.92;;;1.50;99.90;;;;;;6078060;23;20017;-84
2022/03/04 08:25:51;;;;;;;42.08;19.85;;;1.60;99.90;;;;;;6079044;23;20112;-84
2022/03/04 08:28:17;;;;;;;40.22;19.52;;;1.60;99.90;;;;;;6102621;23;20028;-86
2022/03/04 08:30:43;;;;;;;43.17;20.85;;;1.70;99.90;;;;;;6127388;23;20021;-84
2022/03/04 08:33:09;;;;;;;44.80;20.60;;;1.80;99.90;;;;;;6102642;23;20025;-84
2022/03/04 08:35:34;;;;;;;39.85;18.80;;;1.80;99.90;;;;;;6102395;23;20116;-84
2022/03/04 08:38:02;;;;;;;41.80;20.15;;;2.00;99.90;;;;;;6078543;23;20447;-85
2022/03/04 08:40:28;;;;;;;45.33;20.92;;;1.80;99.90;;;;;;6102818;23;20096;-84
2022/03/04 08:42:53;;;;;;;38.38;19.25;;;1.80;99.90;;;;;;6152090;23;20112;-85
2022/03/04 08:45:19;;;;;;;39.42;19.85;;;1.80;99.90;;;;;;6126290;23;20365;-86
2022/03/04 08:47:46;;;;;;;40.88;19.52;;;1.80;99.90;;;;;;6151533;23;20048;-85
2022/03/04 08:50:13;;;;;;;38.47;19.67;;;1.90;99.90;;;;;;6151184;23;20021;-84
2022/03/04 08:52:40;;;;;;;40.33;19.27;;;1.90;99.90;;;;;;6150728;23;20654;-85
2022/03/04 08:55:14;;;;;;;40.45;20.30;;;2.20;99.90;;;;;;6102655;23;20517;-85
2022/03/04 08:57:49;;;;;;;40.05;20.35;;;2.30;99.90;;;;;;6151157;23;20024;-86
2022/03/04 09:00:16;;;;;;;37.38;19.67;;;2.40;99.90;;;;;;6102865;23;20017;-84
2022/03/04 09:02:44;;;;;;;39.95;20.35;;;2.50;99.90;;;;;;6126222;23;20022;-84
2022/03/04 09:05:10;;;;;;;37.55;20.15;;;2.70;99.90;;;;;;6126732;23;20101;-85
2022/03/04 09:07:36;;;;;;;36.85;19.00;;;2.90;99.90;;;;;;6151457;23;20025;-85
2022/03/04 09:10:03;;;;;;;38.63;19.88;;;3.00;99.90;;;;;;6102347;23;20025;-84
2022/03/04 09:12:29;;;;;;;37.72;19.75;;;3.00;99.90;;;;;;6101065;23;20326;-84
2022/03/04 09:14:55;;;;;;;36.80;19.02;;;3.00;99.90;;;;;;6102274;23;20033;-84
2022/03/04 09:17:21;;;;;;;37.47;18.35;;;3.10;99.90;;;;;;6101938;23;20025;-87
2022/03/04 09:19:46;;;;;;;33.33;18.10;;;3.10;99.90;;;;;;6126206;23;20049;-84
2022/03/04 09:22:12;;;;;;;36.35;19.63;;;3.00;99.90;;;;;;6126958;23;20124;-85
2022/03/04 09:24:39;;;;;;;35.53;18.90;;;2.80;99.90;;;;;;6125924;23;20021;-85
2022/03/04 09:27:06;;;;;;;35.53;18.70;;;2.60;99.90;;;;;;6102303;23;20025;-84
2022/03/04 09:29:33;;;;;;;39.17;20.23;;;2.30;99.90;;;;;;6126327;23;20100;-84
2022/03/04 09:31:59;;;;;;;40.15;20.63;;;2.10;99.90;;;;;;6126486;23;20108;-84
2022/03/04 09:34:24;;;;;;;41.92;19.77;;;1.90;99.90;;;;;;6125959;23;20017;-85
2022/03/04 09:36:50;;;;;;;35.80;18.83;;;1.90;99.90;;;;;;6101751;23;20057;-85
2022/03/04 09:39:16;;;;;;;35.08;18.65;;;1.70;99.90;;;;;;6126725;23;20021;-83
2022/03/04 09:41:46;;;;;;;36.50;19.25;;;1.80;99.90;;;;;;6125655;23;20159;-83
2022/03/04 09:44:15;;;;;;;37.83;18.88;;;1.80;99.90;;;;;;6126602;23;20022;-83
2022/03/04 09:46:42;;;;;;;37.35;18.58;;;2.00;99.90;;;;;;6149848;23;20021;-85
2022/03/04 09:49:09;;;;;;;33.05;18.45;;;2.20;99.90;;;;;;6102072;23;20017;-85
2022/03/04 09:51:35;;;;;;;36.55;18.38;;;2.30;99.90;;;;;;6125988;23;20056;-85
2022/03/04 09:54:01;;;;;;;38.25;19.55;;;2.50;99.90;;;;;;6126224;23;20026;-84
2022/03/04 09:56:27;;;;;;;36.53;17.60;;;2.70;99.90;;;;;;6101181;23;20037;-85
2022/03/04 09:58:53;;;;;;;37.38;18.08;;;3.10;99.90;;;;;;6102498;23;20445;-84
2022/03/04 10:01:19;;;;;;;34.67;18.65;;;3.40;99.90;;;;;;6151215;23;20040;-85
2022/03/04 10:03:50;;;;;;;31.85;17.17;;;3.70;99.90;;;;;;6125613;23;20429;-85
2022/03/04 10:06:18;;;;;;;32.25;16.33;;;3.80;99.90;;;;;;6126622;23;20025;-84
2022/03/04 10:08:46;;;;;;;33.33;17.38;;;3.80;99.90;;;;;;6125922;23;20445;-85
2022/03/04 10:11:22;;;;;;;31.60;17.27;;;3.60;99.90;;;;;;6126180;23;20452;-85
2022/03/04 10:13:50;;;;;;;29.77;16.92;;;3.40;99.90;;;;;;6150015;23;20216;-85
2022/03/04 10:16:31;;;;;;;33.25;17.10;;;3.10;99.90;;;;;;6125802;23;20056;-85
2022/03/04 10:19:14;;;;;;;30.55;16.17;;;3.00;99.90;;;;;;6151275;23;20029;-84
2022/03/04 10:22:03;;;;;;;31.60;16.13;;;2.80;99.90;;;;;;6103282;23;20025;-85
2022/03/04 10:24:33;;;;;;;29.95;15.93;;;2.70;99.90;;;;;;6126147;23;20080;-87
2022/03/04 10:27:05;;;;;;;29.92;16.42;;;2.60;99.90;;;;;;6150894;23;20017;-86
2022/03/04 10:29:32;;;;;;;33.55;16.77;;;2.70;99.90;;;;;;6149897;23;20084;-88
2022/03/04 10:32:24;;;;;;;30.60;16.77;;;2.80;99.90;;;;;;6125787;23;20060;-86
2022/03/04 10:35:00;;;;;;;31.80;16.92;;;2.90;99.90;;;;;;6150179;23;20345;-86
2022/03/04 10:37:41;;;;;;;32.40;17.38;;;3.00;99.90;;;;;;6149802;23;20385;-84
2022/03/04 10:40:10;;;;;;;29.23;16.55;;;3.10;99.90;;;;;;6150917;23;20028;-84
2022/03/04 10:42:41;;;;;;;31.58;16.30;;;3.20;99.90;;;;;;6125338;23;20025;-84
2022/03/04 10:45:10;;;;;;;29.73;15.85;;;3.30;99.90;;;;;;6151126;23;20318;-84
2022/03/04 10:47:51;;;;;;;28.17;16.20;;;3.50;99.90;;;;;;6125369;23;20541;-85
2022/03/04 10:50:35;;;;;;;31.60;16.20;;;3.60;99.90;;;;;;6125812;23;20021;-85
2022/03/04 10:53:31;;;;;;;27.50;14.82;;;3.80;99.90;;;;;;6150525;23;20021;-86
2022/03/04 10:56:05;;;;;;;28.05;15.32;;;3.90;99.90;;;;;;6120003;23;20021;-85
2022/03/04 10:58:39;;;;;;;30.15;16.20;;;4.00;99.90;;;;;;6102511;23;20446;-84
2022/03/04 11:01:08;;;;;;;29.02;16.35;;;4.20;99.90;;;;;;6150295;23;20021;-85
2022/03/04 11:03:34;;;;;;;27.40;15.57;;;4.20;99.90;;;;;;6125753;23;20021;-87
2022/03/04 11:06:20;;;;;;;27.92;15.63;;;4.40;99.90;;;;;;6125703;23;20029;-86
2022/03/04 11:08:46;;;;;;;30.17;16.60;;;4.50;99.90;;;;;;6099322;23;20021;-84
2022/03/04 11:11:12;;;;;;;29.15;15.38;;;4.60;99.90;;;;;;6077177;23;20024;-84
2022/03/04 11:13:38;;;;;;;30.13;15.32;;;4.70;99.90;;;;;;6124875;23;20025;-85
2022/03/04 11:16:05;;;;;;;25.60;14.95;;;4.90;99.90;;;;;;6149793;23;20037;-85
2022/03/04 11:18:33;;;;;;;25.02;15.05;;;5.10;99.90;;;;;;6101350;23;20061;-84
2022/03/04 11:20:59;;;;;;;26.63;14.82;;;5.30;99.90;;;;;;6124949;23;20025;-84
2022/03/04 11:23:27;;;;;;;28.88;16.08;;;5.50;99.90;;;;;;6150221;23;20567;-85
2022/03/04 11:26:24;;;;;;;23.90;14.73;;;5.60;99.90;;;;;;6124922;23;20340;-85
2022/03/04 11:28:53;;;;;;;24.27;14.57;;;5.70;98.50;;;;;;6120766;23;20149;-86
2022/03/04 11:31:25;;;;;;;23.75;14.75;;;5.80;99.70;;;;;;6150348;23;20017;-85
2022/03/04 11:33:57;;;;;;;24.50;14.57;;;6.00;98.80;;;;;;6124832;23;20355;-86
2022/03/04 11:36:29;;;;;;;26.65;15.38;;;6.10;98.20;;;;;;6149851;23;20097;-85
2022/03/04 11:39:14;;;;;;;26.58;14.55;;;6.30;97.80;;;;;;6149951;23;20044;-85
2022/03/04 11:42:03;;;;;;;22.52;12.90;;;6.50;96.30;;;;;;6125632;23;20017;-86
2022/03/04 11:44:29;;;;;;;22.25;14.75;;;6.60;94.50;;;;;;6125615;23;20060;-84
2022/03/04 11:47:05;;;;;;;25.20;14.52;;;6.70;96.10;;;;;;6101159;23;20028;-85
2022/03/04 11:49:43;;;;;;;;;;;6.70;93.80;;;;;;6126174;23;20353;-85
2022/03/04 11:52:12;;;;;;;25.17;13.35;;;6.80;92.50;;;;;;6150788;23;19935;-84
2022/03/04 11:54:42;;;;;;;28.60;14.70;;;7.00;94.80;;;;;;6124511;23;20021;-85
2022/03/04 11:57:21;;;;;;;24.45;13.75;;;7.10;94.40;;;;;;6125900;23;20072;-85
2022/03/04 11:59:54;;;;;;;22.73;13.90;;;7.30;92.80;;;;;;6124999;23;20014;-86
2022/03/04 12:02:51;;;;;;;24.02;13.95;;;7.30;92.40;;;;;;6125454;23;20021;-83
2022/03/04 12:05:25;;;;;;;22.92;13.43;;;7.40;91.70;;;;;;6124842;23;20529;-85
2022/03/04 12:08:07;;;;;;;22.27;13.70;;;7.50;92.80;;;;;;6124545;23;20032;-85
2022/03/04 12:10:39;;;;;;;22.45;13.50;;;7.80;90.90;;;;;;6127944;23;20052;-85
2022/03/04 12:13:09;;;;;;;20.95;13.15;;;7.90;91.30;;;;;;6125911;23;20088;-85
2022/03/04 12:15:40;;;;;;;22.27;13.10;;;8.10;91.00;;;;;;6127492;23;20072;-85
2022/03/04 12:18:18;;;;;;;19.88;12.77;;;8.30;90.40;;;;;;6126747;23;20048;-85
2022/03/04 12:20:44;;;;;;;20.63;12.82;;;8.50;86.90;;;;;;6151847;23;20021;-86
2022/03/04 12:23:14;;;;;;;17.40;11.95;;;8.70;88.40;;;;;;6151308;23;20471;-84
2022/03/04 12:25:53;;;;;;;31.88;16.90;;;8.90;86.40;;;;;;6127648;23;20025;-86
2022/03/04 12:28:39;;;;;;;36.38;16.92;;;8.90;81.80;;;;;;6127386;23;20026;-85
2022/03/04 12:31:05;;;;;;;18.27;11.25;;;8.90;84.50;;;;;;6150441;23;20261;-85
2022/03/04 12:33:44;;;;;;;18.33;11.85;;;9.00;84.80;;;;;;6151877;23;20438;-85
2022/03/04 12:36:13;;;;;;;16.50;11.07;;;9.00;83.00;;;;;;6127213;23;20333;-84
2022/03/04 12:38:44;;;;;;;19.63;12.02;;;9.10;83.60;;;;;;6152071;23;20349;-84